| time (UTC) | temp F | wind direction | speed knots | gust knots | rain 1hr in | rain 24hr in | rain mn in | humidity % | barometer mb |
| 20260510061527 | 51 | 219 | 0.0 | 0.0 | 0.00 | 0.44 | 0.00 | 97 | 1010.7 |
| 20260510060111 | 51 | 214 | 0.0 | 0.0 | 0.00 | 0.44 | 0.00 | 96 | 1010.6 |
| 20260510054549 | 51 | 219 | 0.0 | 0.0 | 0.00 | 0.44 | 0.00 | 96 | 1010.6 |
| 20260510053001 | 51 | 219 | 0.0 | 0.0 | 0.00 | 0.44 | 0.00 | 96 | 1010.3 |
| 20260510051642 | 51 | 219 | 0.0 | 0.0 | 0.00 | 0.44 | 0.00 | 96 | 1010.5 |
| 20260510050009 | 51 | 219 | 0.0 | 0.0 | 0.00 | 0.44 | 0.00 | 96 | 1010.8 |
| 20260510044603 | 51 | 219 | 0.0 | 0.0 | 0.00 | 0.44 | 0.00 | 96 | 1010.7 |
| 20260510043029 | 50 | 219 | 0.0 | 0.0 | 0.00 | 0.44 | 0.00 | 96 | 1010.6 |
| 20260510041621 | 51 | 219 | 0.0 | 0.0 | 0.00 | 0.44 | 0.00 | 96 | 1010.6 |
| 20260510040004 | 51 | 219 | 0.0 | 0.0 | 0.00 | 0.44 | 0.44 | 96 | 1010.7 |
| 20260510034631 | 51 | 219 | 0.0 | 0.0 | 0.01 | 0.44 | 0.44 | 96 | 1010.6 |
| 20260510033056 | 51 | 219 | 0.0 | 0.0 | 0.02 | 0.44 | 0.44 | 96 | 1010.7 |
| 20260510031513 | 51 | 219 | 0.0 | 0.0 | 0.02 | 0.44 | 0.44 | 96 | 1010.8 |
| 20260510030001 | 51 | 219 | 0.0 | 0.0 | 0.02 | 0.44 | 0.44 | 95 | 1010.9 |
| 20260510024557 | 51 | 219 | 0.0 | 0.0 | 0.01 | 0.43 | 0.43 | 96 | 1011.3 |
| 20260510023033 | 51 | 219 | 0.0 | 0.0 | 0.00 | 0.42 | 0.42 | 96 | 1011.6 |
| 20260510021601 | 51 | 219 | 0.0 | 0.0 | 0.00 | 0.42 | 0.42 | 95 | 1011.8 |
| 20260510020024 | 52 | 219 | 0.0 | 0.0 | 0.00 | 0.42 | 0.42 | 95 | 1011.9 |
| 20260510014623 | 52 | 219 | 0.0 | 0.0 | 0.00 | 0.42 | 0.42 | 95 | 1012.1 |
| 20260510013049 | 52 | 219 | 0.0 | 0.0 | 0.00 | 0.42 | 0.42 | 95 | 1012.1 |
| 20260510011512 | 52 | 220 | 0.0 | 0.0 | 0.01 | 0.42 | 0.42 | 95 | 1012.2 |
| 20260510010106 | 53 | 216 | 0.0 | 0.0 | 0.01 | 0.42 | 0.42 | 95 | 1012.2 |
| 20260510004524 | 53 | 211 | 0.0 | 0.0 | 0.01 | 0.42 | 0.42 | 96 | 1012.2 |
| 20260510003126 | 53 | 208 | 0.0 | 0.0 | 0.02 | 0.42 | 0.42 | 96 | 1012.2 |
| 20260510001545 | 54 | 225 | 0.0 | 0.0 | 0.01 | 0.41 | 0.41 | 96 | 1012.1 |
| 20260510000006 | 54 | 227 | 0.0 | 0.0 | 0.03 | 0.41 | 0.41 | 95 | 1012.1 |
| 20260509234632 | 54 | 215 | 0.0 | 0.0 | 0.07 | 0.41 | 0.41 | 95 | 1012.1 |
| 20260509233050 | 54 | 217 | 0.0 | 0.0 | 0.12 | 0.40 | 0.40 | 95 | 1012.1 |
| 20260509231513 | 54 | 218 | 0.0 | 0.0 | 0.18 | 0.40 | 0.40 | 95 | 1012.0 |
| 20260509230109 | 54 | 216 | 0.0 | 0.0 | 0.24 | 0.38 | 0.38 | 95 | 1012.0 |
| 20260509224548 | 54 | 206 | 0.0 | 0.0 | 0.23 | 0.34 | 0.34 | 95 | 1011.9 |
| 20260509223011 | 55 | 242 | 0.0 | 0.0 | 0.20 | 0.28 | 0.28 | 94 | 1011.9 |
| 20260509221550 | 55 | 236 | 0.0 | 0.0 | 0.16 | 0.22 | 0.22 | 94 | 1011.7 |
| 20260509220009 | 55 | 238 | 0.0 | 0.0 | 0.11 | 0.14 | 0.14 | 94 | 1011.4 |
| 20260509214627 | 55 | 220 | 0.0 | 0.0 | 0.08 | 0.11 | 0.11 | 93 | 1011.3 |
| 20260509213101 | 55 | 216 | 0.0 | 0.0 | 0.05 | 0.08 | 0.08 | 92 | 1011.4 |
| 20260509211506 | 56 | 167 | 0.0 | 0.0 | 0.02 | 0.05 | 0.05 | 89 | 1011.3 |
| 20260509210104 | 57 | 206 | 0.0 | 0.0 | 0.00 | 0.03 | 0.03 | 84 | 1010.9 |
| 20260509204512 | 57 | 218 | 0.0 | 0.0 | 0.00 | 0.03 | 0.03 | 83 | 1010.5 |
| 20260509203104 | 57 | 217 | 0.0 | 0.0 | 0.00 | 0.03 | 0.03 | 85 | 1010.8 |
| 20260509201522 | 58 | 243 | 0.0 | 0.0 | 0.00 | 0.03 | 0.03 | 81 | 1010.8 |
| 20260509200112 | 59 | 219 | 0.0 | 0.0 | 0.00 | 0.03 | 0.03 | 77 | 1010.9 |
| 20260509194544 | 60 | 227 | 0.0 | 0.0 | 0.00 | 0.03 | 0.03 | 75 | 1010.9 |
| 20260509193006 | 60 | 217 | 0.0 | 0.0 | 0.00 | 0.03 | 0.03 | 76 | 1010.9 |
| 20260509191604 | 60 | 236 | 0.0 | 0.0 | 0.00 | 0.03 | 0.03 | 76 | 1011.0 |
| 20260509190026 | 59 | 273 | 0.0 | 0.0 | 0.00 | 0.03 | 0.03 | 77 | 1011.1 |
| 20260509184615 | 58 | 217 | 0.0 | 0.0 | 0.00 | 0.03 | 0.03 | 79 | 1011.1 |
| 20260509183023 | 58 | 277 | 0.0 | 0.0 | 0.00 | 0.03 | 0.03 | 79 | 1011.3 |
| 20260509181611 | 57 | 205 | 0.0 | 0.0 | 0.00 | 0.03 | 0.03 | 83 | 1011.3 |
| 20260509180024 | 56 | 226 | 0.0 | 0.0 | 0.00 | 0.03 | 0.03 | 83 | 1011.4 |
| 20260509174626 | 56 | 226 | 0.0 | 0.0 | 0.00 | 0.03 | 0.03 | 83 | 1011.8 |
| 20260509173052 | 57 | 238 | 0.0 | 0.0 | 0.00 | 0.03 | 0.03 | 79 | 1012.4 |
| 20260509171507 | 58 | 203 | 0.0 | 0.0 | 0.00 | 0.03 | 0.03 | 76 | 1012.2 |
| 20260509170058 | 58 | 206 | 0.0 | 0.0 | 0.00 | 0.03 | 0.03 | 73 | 1012.0 |
| 20260509164524 | 58 | 223 | 0.0 | 0.0 | 0.00 | 0.03 | 0.03 | 74 | 1011.9 |
| 20260509163117 | 58 | 222 | 0.0 | 0.0 | 0.00 | 0.03 | 0.03 | 74 | 1012.2 |
| 20260509161600 | 58 | 112 | 0.0 | 0.0 | 0.00 | 0.03 | 0.03 | 76 | 1012.0 |
| 20260509160020 | 58 | 259 | 0.0 | 0.0 | 0.00 | 0.03 | 0.03 | 80 | 1012.2 |
| 20260509154629 | 57 | 238 | 0.0 | 0.0 | 0.00 | 0.03 | 0.03 | 81 | 1012.4 |
| 20260509153041 | 55 | 217 | 0.0 | 0.0 | 0.00 | 0.03 | 0.03 | 87 | 1012.6 |
| 20260509151502 | 53 | 155 | 0.0 | 0.0 | 0.00 | 0.03 | 0.03 | 93 | 1012.7 |
| 20260509150055 | 52 | 264 | 0.0 | 0.0 | 0.00 | 0.03 | 0.03 | 96 | 1012.7 |
| 20260509144544 | 51 | 266 | 0.0 | 0.0 | 0.00 | 0.03 | 0.03 | 96 | 1012.6 |
| 20260509143135 | 50 | 292 | 0.0 | 0.0 | 0.00 | 0.03 | 0.03 | 97 | 1013.2 |
| 20260509141552 | 49 | 292 | 0.0 | 0.0 | 0.00 | 0.03 | 0.03 | 97 | 1013.1 |
| 20260509140010 | 48 | 293 | 0.0 | 0.0 | 0.00 | 0.03 | 0.03 | 97 | 1013.4 |
| 20260509134554 | 47 | 292 | 0.0 | 0.0 | 0.00 | 0.03 | 0.03 | 97 | 1013.5 |
| 20260509133058 | 46 | 292 | 0.0 | 0.0 | 0.01 | 0.03 | 0.03 | 97 | 1013.7 |
| 20260509131543 | 45 | 292 | 0.0 | 0.0 | 0.01 | 0.03 | 0.03 | 97 | 1013.9 |
| 20260509130039 | 44 | 292 | 0.0 | 0.0 | 0.01 | 0.03 | 0.03 | 96 | 1013.9 |
| 20260509124535 | 43 | 292 | 0.0 | 0.0 | 0.01 | 0.03 | 0.03 | 96 | 1014.0 |
| 20260509123034 | 42 | 292 | 0.0 | 0.0 | 0.00 | 0.02 | 0.02 | 96 | 1013.8 |
| 20260509121537 | 42 | 292 | 0.0 | 0.0 | 0.02 | 0.02 | 0.02 | 96 | 1013.9 |
| 20260509120034 | 41 | 292 | 0.0 | 0.0 | 0.02 | 0.02 | 0.02 | 96 | 1013.9 |
| 20260509114527 | 41 | 293 | 0.0 | 0.0 | 0.02 | 0.02 | 0.02 | 95 | 1014.0 |
| 20260509113027 | 40 | 292 | 0.0 | 0.0 | 0.02 | 0.02 | 0.02 | 95 | 1014.4 |
| 20260509111526 | 39 | 292 | 0.0 | 0.0 | 0.00 | 0.00 | 0.00 | 95 | 1014.6 |
| 20260509110025 | 39 | 292 | 0.0 | 0.0 | 0.00 | 0.00 | 0.00 | 94 | 1014.6 |
| 20260509104523 | 38 | 292 | 0.0 | 0.0 | 0.00 | 0.00 | 0.00 | 94 | 1014.4 |
| 20260509103022 | 38 | 292 | 0.0 | 0.0 | 0.00 | 0.00 | 0.00 | 94 | 1014.4 |
| 20260509101520 | 37 | 292 | 0.0 | 0.0 | 0.00 | 0.00 | 0.00 | 94 | 1013.7 |
| 20260509100017 | 37 | 292 | 0.0 | 0.0 | 0.00 | 0.00 | 0.00 | 93 | 1013.4 |
| 20260509094516 | 36 | 292 | 0.0 | 0.0 | 0.00 | 0.00 | 0.00 | 93 | 1013.1 |
| 20260509093016 | 36 | 292 | 0.0 | 0.0 | 0.00 | 0.00 | 0.00 | 93 | 1012.9 |
| 20260509091525 | 35 | 292 | 0.0 | 0.0 | 0.00 | 0.00 | 0.00 | 93 | 1012.9 |
| 20260509090013 | 35 | 292 | 0.0 | 0.0 | 0.00 | 0.00 | 0.00 | 92 | 1013.1 |
| 20260509084519 | 35 | 292 | 0.0 | 0.0 | 0.00 | 0.00 | 0.00 | 92 | 1013.0 |
| 20260509083011 | 35 | 292 | 0.0 | 0.0 | 0.00 | 0.00 | 0.00 | 91 | 1012.9 |
| 20260509081511 | 35 | 292 | 0.0 | 0.0 | 0.00 | 0.00 | 0.00 | 91 | 1013.2 |
| 20260509080020 | 36 | 292 | 0.0 | 0.0 | 0.00 | 0.00 | 0.00 | 91 | 1013.3 |
| 20260509074508 | 36 | 292 | 0.0 | 0.0 | 0.00 | 0.00 | 0.00 | 91 | 1013.2 |
| 20260509073016 | 36 | 292 | 0.0 | 0.0 | 0.00 | 0.00 | 0.00 | 91 | 1013.3 |
| 20260509071505 | 36 | 292 | 0.0 | 0.0 | 0.00 | 0.00 | 0.00 | 90 | 1013.2 |
| 20260509070004 | 36 | 292 | 0.0 | 0.0 | 0.00 | 0.00 | 0.00 | 90 | 1013.3 |
| 20260509064503 | 36 | 292 | 0.0 | 0.0 | 0.00 | 0.00 | 0.00 | 90 | 1013.3 |
| 20260509063002 | 37 | 292 | 0.0 | 0.0 | 0.00 | 0.00 | 0.00 | 89 | 1013.3 |